createdAt,value
2018-11-05T00:01:29.601Z,18.32
2018-11-05T00:03:57.033Z,17.53
2018-11-05T00:06:24.495Z,16.73
2018-11-05T00:08:51.952Z,18.80
2018-11-05T00:11:19.418Z,16.20
2018-11-05T00:13:46.894Z,16.67
2018-11-05T00:16:14.388Z,19.02
2018-11-05T00:18:41.875Z,17.95
2018-11-05T00:21:09.723Z,19.30
2018-11-05T00:23:37.179Z,19.32
2018-11-05T00:26:05.071Z,19.25
2018-11-05T00:28:32.635Z,19.15
2018-11-05T00:31:00.142Z,18.35
2018-11-05T00:33:27.759Z,18.73
2018-11-05T00:35:55.230Z,16.80
2018-11-05T00:38:22.694Z,19.10
2018-11-05T00:40:50.171Z,17.57
2018-11-05T00:43:17.666Z,18.92
2018-11-05T00:45:45.269Z,16.07
2018-11-05T00:48:12.703Z,14.75
2018-11-05T00:50:40.179Z,17.07
2018-11-05T00:53:07.658Z,15.95
2018-11-05T00:55:35.097Z,16.48
2018-11-05T00:58:02.603Z,17.23
2018-11-05T01:00:30.623Z,18.97
2018-11-05T01:02:58.159Z,14.90
2018-11-05T01:05:25.610Z,16.07
2018-11-05T01:07:53.011Z,17.30
2018-11-05T01:10:20.601Z,17.23
2018-11-05T01:12:48.034Z,16.90
2018-11-05T01:15:16.605Z,15.95
2018-11-05T01:17:44.094Z,17.42
2018-11-05T01:20:12.591Z,16.23
2018-11-05T01:22:40.029Z,13.72
2018-11-05T01:25:07.510Z,17.73
2018-11-05T01:27:39.382Z,17.45
2018-11-05T01:30:09.330Z,16.93
2018-11-05T01:32:36.677Z,15.85
2018-11-05T01:35:04.905Z,18.00
2018-11-05T01:37:32.200Z,16.82
2018-11-05T01:39:59.534Z,17.00
2018-11-05T01:42:26.878Z,16.45
2018-11-05T01:44:54.155Z,17.10
2018-11-05T01:47:21.491Z,18.15
2018-11-05T01:49:48.787Z,18.20
2018-11-05T01:52:16.079Z,18.17
2018-11-05T01:54:43.547Z,17.27
2018-11-05T01:57:11.022Z,17.10
2018-11-05T01:59:38.522Z,16.32
2018-11-05T02:02:06.031Z,17.55
2018-11-05T02:04:33.520Z,17.20
2018-11-05T02:07:02.098Z,17.67
2018-11-05T02:09:29.398Z,19.05
2018-11-05T02:11:56.674Z,15.72
2018-11-05T02:14:24.136Z,18.48
2018-11-05T02:16:51.622Z,15.72
2018-11-05T02:19:19.099Z,18.65
2018-11-05T02:21:46.723Z,16.35
2018-11-05T02:24:14.182Z,17.23
2018-11-05T02:26:42.211Z,17.25
2018-11-05T02:29:09.669Z,17.20
2018-11-05T02:31:37.125Z,17.20
2018-11-05T02:34:04.723Z,18.52
2018-11-05T02:36:32.027Z,17.37
2018-11-05T02:38:59.516Z,15.45
2018-11-05T02:41:27.012Z,20.57
2018-11-05T02:43:54.297Z,17.62
2018-11-05T02:46:21.818Z,16.00
2018-11-05T02:48:49.315Z,15.98
2018-11-05T02:51:16.940Z,16.37
2018-11-05T02:53:44.532Z,17.55
2018-11-05T02:56:12.027Z,17.98
2018-11-05T02:58:39.561Z,17.35
2018-11-05T03:01:07.032Z,19.60
2018-11-05T03:03:34.550Z,18.10
2018-11-05T03:06:02.015Z,20.52
2018-11-05T03:08:29.525Z,19.15
2018-11-05T03:10:57.001Z,20.45
2018-11-05T03:13:24.441Z,17.23
2018-11-05T03:15:51.880Z,16.23
2018-11-05T03:18:19.522Z,19.32
2018-11-05T03:20:47.027Z,21.07
2018-11-05T03:23:14.513Z,17.73
2018-11-05T03:25:41.987Z,17.52
2018-11-05T03:28:09.488Z,15.83
2018-11-05T03:30:36.945Z,19.67
2018-11-05T03:33:04.700Z,18.67
2018-11-05T03:35:32.231Z,20.62
2018-11-05T03:37:59.757Z,18.40
2018-11-05T03:40:27.263Z,18.32
2018-11-05T03:42:54.788Z,21.40
2018-11-05T03:45:22.455Z,18.05
2018-11-05T03:47:49.932Z,20.90
2018-11-05T03:50:18.145Z,21.40
2018-11-05T03:52:46.386Z,19.55
2018-11-05T03:55:14.922Z,20.65
2018-11-05T03:57:42.420Z,22.30
2018-11-05T04:00:12.158Z,20.82
2018-11-05T04:02:39.855Z,20.62
2018-11-05T04:05:07.719Z,21.57
2018-11-05T04:07:35.176Z,16.50
2018-11-05T04:10:02.711Z,21.27
2018-11-05T04:12:30.267Z,19.50
2018-11-05T04:14:57.734Z,20.40
2018-11-05T04:17:25.244Z,20.25
2018-11-05T04:19:52.726Z,20.83
2018-11-05T04:22:20.215Z,19.87
2018-11-05T04:24:47.719Z,18.73
2018-11-05T04:27:15.212Z,22.93
2018-11-05T04:29:42.717Z,23.10
2018-11-05T04:32:10.202Z,24.37
2018-11-05T04:34:37.650Z,22.87
2018-11-05T04:37:05.262Z,22.62
2018-11-05T04:39:32.764Z,22.45
2018-11-05T04:42:00.243Z,21.25
2018-11-05T04:44:28.146Z,19.63
2018-11-05T04:46:55.620Z,20.17
2018-11-05T04:49:23.132Z,18.93
2018-11-05T04:51:50.636Z,22.58
2018-11-05T04:54:18.067Z,29.10
2018-11-05T04:56:45.573Z,20.30
2018-11-05T04:59:13.063Z,20.45
2018-11-05T05:01:40.570Z,21.77
2018-11-05T05:04:08.065Z,20.37
2018-11-05T05:06:35.574Z,26.37
2018-11-05T05:09:05.142Z,25.50
2018-11-05T05:11:32.556Z,23.40
2018-11-05T05:14:00.046Z,21.45
2018-11-05T05:16:27.505Z,18.85
2018-11-05T05:18:56.019Z,20.45
2018-11-05T05:21:23.376Z,18.82
2018-11-05T05:23:50.690Z,21.20
2018-11-05T05:26:18.150Z,24.90
2018-11-05T05:28:45.590Z,19.75
2018-11-05T05:31:13.059Z,21.27
2018-11-05T05:33:40.680Z,20.20
2018-11-05T05:36:08.064Z,21.93
2018-11-05T05:38:35.489Z,20.52
2018-11-05T05:41:03.058Z,23.00
2018-11-05T05:43:30.565Z,22.85
2018-11-05T05:45:58.039Z,21.33
2018-11-05T05:48:25.469Z,25.50
2018-11-05T05:50:52.901Z,21.37
2018-11-05T05:53:20.349Z,21.90
2018-11-05T05:55:47.820Z,25.50
2018-11-05T05:58:15.273Z,23.38
2018-11-05T06:00:42.858Z,20.82
2018-11-05T06:03:10.369Z,21.05
2018-11-05T06:05:37.882Z,22.65
2018-11-05T06:08:05.823Z,18.67
2018-11-05T06:10:33.295Z,22.62
2018-11-05T06:13:00.749Z,20.35
2018-11-05T06:15:28.226Z,20.60
2018-11-05T06:17:55.719Z,22.95
2018-11-05T06:20:23.232Z,25.15
2018-11-05T06:22:50.928Z,24.25
2018-11-05T06:25:18.519Z,27.35
2018-11-05T06:27:48.286Z,36.75
2018-11-05T06:30:17.210Z,34.78
2018-11-05T06:32:45.421Z,30.15
2018-11-05T06:35:17.024Z,34.27
2018-11-05T06:37:44.252Z,31.55
2018-11-05T06:40:13.395Z,38.90
2018-11-05T06:42:43.734Z,55.88
2018-11-05T06:45:13.248Z,44.40
2018-11-05T06:47:41.626Z,36.98
2018-11-05T06:50:12.272Z,37.83
2018-11-05T06:52:40.135Z,44.53
2018-11-05T06:55:08.205Z,42.30
2018-11-05T06:57:35.553Z,38.83
2018-11-05T07:00:03.163Z,38.80
2018-11-05T07:02:30.567Z,41.33
2018-11-05T07:04:57.733Z,37.03
2018-11-05T07:07:25.007Z,35.95
2018-11-05T07:09:52.577Z,35.75
2018-11-05T07:12:19.841Z,36.08
2018-11-05T07:14:47.192Z,32.80
2018-11-05T07:17:14.473Z,35.20
2018-11-05T07:19:41.781Z,32.05
2018-11-05T07:22:09.530Z,36.77
2018-11-05T07:24:36.798Z,30.95
2018-11-05T07:27:04.202Z,32.13
2018-11-05T07:29:31.473Z,37.88
2018-11-05T07:31:58.737Z,36.75
2018-11-05T07:34:26.072Z,31.97
2018-11-05T07:36:53.309Z,31.05
2018-11-05T07:39:20.582Z,32.55
2018-11-05T07:41:47.891Z,33.23
2018-11-05T07:44:15.196Z,38.20
2018-11-05T07:46:42.688Z,38.57
2018-11-05T07:49:09.930Z,39.33
2018-11-05T07:51:37.373Z,39.03
2018-11-05T07:54:04.632Z,39.30
2018-11-05T07:56:31.900Z,34.20
2018-11-05T07:58:59.111Z,36.60
2018-11-05T08:01:26.332Z,28.90
2018-11-05T08:03:53.610Z,34.67
2018-11-05T08:06:20.902Z,30.85
2018-11-05T08:08:48.194Z,23.10
2018-11-05T08:11:15.486Z,24.97
2018-11-05T08:13:42.705Z,24.77
2018-11-05T08:16:11.974Z,29.53
2018-11-05T08:18:39.239Z,30.63
2018-11-05T08:21:06.526Z,19.80
2018-11-05T08:23:33.801Z,20.87
2018-11-05T08:26:01.092Z,23.70
2018-11-05T08:28:28.317Z,21.90
2018-11-05T08:30:55.739Z,22.73
2018-11-05T08:33:22.953Z,27.13
2018-11-05T08:35:50.174Z,25.30
2018-11-05T08:38:17.554Z,29.47
2018-11-05T08:40:44.813Z,26.17
2018-11-05T08:43:12.034Z,27.00
2018-11-05T08:45:39.270Z,31.30
2018-11-05T08:48:06.505Z,31.30
2018-11-05T08:50:33.921Z,27.30
2018-11-05T08:53:01.207Z,29.10
2018-11-05T08:55:28.487Z,29.47
2018-11-05T08:57:55.733Z,28.63
2018-11-05T09:00:29.205Z,24.40
2018-11-05T09:02:56.492Z,29.67
2018-11-05T09:05:24.066Z,29.17
2018-11-05T09:07:52.339Z,41.90
2018-11-05T09:10:20.201Z,28.73
2018-11-05T09:12:47.321Z,28.67
2018-11-05T09:15:16.649Z,33.63
2018-11-05T09:17:44.551Z,28.33
2018-11-05T09:20:13.249Z,32.30
2018-11-05T09:22:40.854Z,41.20
2018-11-05T09:25:10.236Z,42.17
2018-11-05T09:27:37.637Z,32.63
2018-11-05T09:30:08.209Z,39.63
2018-11-05T09:32:35.464Z,29.07
2018-11-05T09:35:02.897Z,33.37
2018-11-05T09:37:30.201Z,25.40
2018-11-05T09:39:57.488Z,34.17
2018-11-05T09:42:25.729Z,27.93
2018-11-05T09:44:53.329Z,29.80
2018-11-05T09:47:20.611Z,27.27
2018-11-05T09:49:47.841Z,25.17
2018-11-05T09:52:15.097Z,25.50
2018-11-05T09:54:42.352Z,24.30
2018-11-05T09:57:09.669Z,31.13
2018-11-05T09:59:36.849Z,24.20
2018-11-05T10:02:04.674Z,24.17
2018-11-05T10:04:32.018Z,27.87
2018-11-05T10:06:59.138Z,24.13
2018-11-05T10:09:26.404Z,28.30
2018-11-05T10:11:54.437Z,21.37
2018-11-05T10:14:21.690Z,26.30
2018-11-05T10:16:48.953Z,20.00
2018-11-05T10:19:16.306Z,23.60
2018-11-05T10:21:43.550Z,24.13
2018-11-05T10:24:10.818Z,23.57
2018-11-05T10:26:38.271Z,21.40
2018-11-05T10:29:05.737Z,25.93
2018-11-05T10:31:33.175Z,25.17
2018-11-05T10:34:00.681Z,22.97
2018-11-05T10:36:28.159Z,22.30
2018-11-05T10:38:55.646Z,21.33
2018-11-05T10:41:23.150Z,20.63
2018-11-05T10:43:50.639Z,17.27
2018-11-05T10:46:18.167Z,26.13
2018-11-05T10:48:45.690Z,24.87
2018-11-05T10:51:13.238Z,20.60
2018-11-05T10:53:40.671Z,20.40
2018-11-05T10:56:08.157Z,23.20
2018-11-05T10:58:35.642Z,26.90
2018-11-05T11:01:08.928Z,26.83
2018-11-05T11:03:37.733Z,12.90
2018-11-05T11:06:06.698Z,10.97
2018-11-05T11:08:34.192Z,9.63
2018-11-05T11:11:01.686Z,10.13
2018-11-05T11:13:29.236Z,18.17
2018-11-05T11:15:56.704Z,17.43
2018-11-05T11:18:24.366Z,24.40
2018-11-05T11:20:51.874Z,16.87
2018-11-05T11:23:19.426Z,25.50
2018-11-05T11:25:46.921Z,25.63
2018-11-05T11:28:14.479Z,23.30
2018-11-05T11:30:41.928Z,27.50
2018-11-05T11:33:09.470Z,25.37
2018-11-05T11:35:37.015Z,25.27
2018-11-05T11:38:05.018Z,25.43
2018-11-05T11:40:32.471Z,23.03
2018-11-05T11:42:59.964Z,25.40
2018-11-05T11:45:27.474Z,23.50
2018-11-05T11:47:54.974Z,24.63
2018-11-05T11:50:22.508Z,23.83
2018-11-05T11:52:50.173Z,21.83
2018-11-05T11:55:18.947Z,21.83
2018-11-05T11:57:46.583Z,25.23
2018-11-05T12:00:16.331Z,27.90
2018-11-05T12:02:44.083Z,23.30
2018-11-05T12:05:11.734Z,25.53
2018-11-05T12:07:39.054Z,28.20
2018-11-05T12:10:11.205Z,25.30
2018-11-05T12:12:38.872Z,25.07
2018-11-05T12:15:06.920Z,24.70
2018-11-05T12:17:34.234Z,30.93
2018-11-05T12:20:01.719Z,22.90
2018-11-05T12:22:29.205Z,22.50
2018-11-05T12:24:56.744Z,25.00
2018-11-05T12:27:24.140Z,23.83
2018-11-05T12:29:51.575Z,19.53
2018-11-05T12:32:19.055Z,19.57
2018-11-05T12:34:47.154Z,18.90
2018-11-05T12:37:14.465Z,17.60
2018-11-05T12:39:41.936Z,18.63
2018-11-05T12:42:09.475Z,16.73
2018-11-05T12:44:37.033Z,15.87
2018-11-05T12:47:04.767Z,17.10
2018-11-05T12:49:32.228Z,16.23
2018-11-05T12:51:59.734Z,18.27
2018-11-05T12:54:27.198Z,16.20
2018-11-05T12:56:54.678Z,15.40
2018-11-05T12:59:22.194Z,17.80
2018-11-05T13:01:51.591Z,19.37
2018-11-05T13:04:18.961Z,15.57
2018-11-05T13:06:46.260Z,15.67
2018-11-05T13:09:13.711Z,16.73
2018-11-05T13:11:41.174Z,12.70
2018-11-05T13:14:08.652Z,13.73
2018-11-05T13:16:36.139Z,14.13
2018-11-05T13:19:03.599Z,14.10
2018-11-05T13:21:31.193Z,13.27
2018-11-05T13:23:58.684Z,12.40
2018-11-05T13:26:26.158Z,14.40
2018-11-05T13:28:53.636Z,12.27
2018-11-05T13:31:21.090Z,16.13
2018-11-05T13:33:48.527Z,12.90
2018-11-05T13:36:16.040Z,13.43
2018-11-05T13:38:43.637Z,14.03
2018-11-05T13:41:11.116Z,12.80
2018-11-05T13:43:38.608Z,15.03
2018-11-05T13:46:06.464Z,14.67
2018-11-05T13:48:34.159Z,13.93
2018-11-05T13:51:01.394Z,13.20
2018-11-05T13:53:28.902Z,14.00
2018-11-05T13:55:56.399Z,14.10
2018-11-05T13:58:23.963Z,12.30
2018-11-05T14:00:51.413Z,14.47
2018-11-05T14:03:19.290Z,13.87
2018-11-05T14:05:46.897Z,13.20
2018-11-05T14:08:14.346Z,13.13
2018-11-05T14:10:42.677Z,11.90
2018-11-05T14:13:10.167Z,14.07
2018-11-05T14:15:37.634Z,12.73
2018-11-05T14:18:05.184Z,11.87
2018-11-05T14:20:32.707Z,14.87
2018-11-05T14:23:00.500Z,13.00
2018-11-05T14:25:28.120Z,12.23
2018-11-05T14:27:55.822Z,13.30
2018-11-05T14:30:23.101Z,13.60
2018-11-05T14:32:50.788Z,14.00
2018-11-05T14:35:18.313Z,13.77
2018-11-05T14:37:45.825Z,14.23
2018-11-05T14:40:14.617Z,14.33
2018-11-05T14:42:42.172Z,13.93
2018-11-05T14:45:11.476Z,16.57
2018-11-05T14:47:39.430Z,14.87
2018-11-05T14:50:09.019Z,13.73
2018-11-05T14:52:36.651Z,14.67
2018-11-05T14:55:05.376Z,14.73
2018-11-05T14:57:32.834Z,13.93
2018-11-05T15:00:00.316Z,17.17
2018-11-05T15:02:33.701Z,15.10
2018-11-05T15:05:01.148Z,14.00
2018-11-05T15:07:28.655Z,13.90
2018-11-05T15:09:56.070Z,14.30
2018-11-05T15:12:23.618Z,13.30
2018-11-05T15:14:53.945Z,13.53
2018-11-05T15:17:21.441Z,12.87
2018-11-05T15:19:49.273Z,12.70
2018-11-05T15:22:16.509Z,11.63
2018-11-05T15:24:44.025Z,11.20
2018-11-05T15:27:11.486Z,11.70
2018-11-05T15:29:38.949Z,14.10
2018-11-05T15:32:07.009Z,12.77
2018-11-05T15:34:34.462Z,11.53
2018-11-05T15:37:01.937Z,11.13
2018-11-05T15:39:29.443Z,11.33
2018-11-05T15:41:56.910Z,10.83
2018-11-05T15:44:24.354Z,13.40
2018-11-05T15:46:51.797Z,11.57
2018-11-05T15:49:19.327Z,12.33
2018-11-05T15:51:47.261Z,11.57
2018-11-05T15:54:14.599Z,15.03
2018-11-05T15:56:41.964Z,14.00
2018-11-05T15:59:09.463Z,11.83
2018-11-05T16:01:36.962Z,10.90
2018-11-05T16:04:04.716Z,11.63
2018-11-05T16:06:32.266Z,11.00
2018-11-05T16:08:59.863Z,12.10
2018-11-05T16:11:27.380Z,13.20
2018-11-05T16:13:54.892Z,12.20
2018-11-05T16:16:22.478Z,12.37
2018-11-05T16:18:50.000Z,18.77
2018-11-05T16:21:17.556Z,10.63
2018-11-05T16:23:48.824Z,10.37
2018-11-05T16:26:16.445Z,13.93
2018-11-05T16:28:43.988Z,13.20
2018-11-05T16:31:11.479Z,12.97
2018-11-05T16:33:38.984Z,12.60
2018-11-05T16:36:10.361Z,19.70
2018-11-05T16:38:37.785Z,23.77
2018-11-05T16:41:06.043Z,44.50
2018-11-05T16:43:33.403Z,24.83
2018-11-05T16:46:00.736Z,20.60
2018-11-05T16:48:28.035Z,23.77
2018-11-05T16:50:55.334Z,17.23
2018-11-05T16:53:22.624Z,16.00
2018-11-05T16:55:49.979Z,14.43
2018-11-05T16:58:18.329Z,22.60
2018-11-05T17:00:45.793Z,22.27
2018-11-05T17:03:13.012Z,23.07
2018-11-05T17:05:40.299Z,30.77
2018-11-05T17:08:07.644Z,21.80
2018-11-05T17:10:34.998Z,31.03
2018-11-05T17:13:02.312Z,28.40
2018-11-05T17:15:29.603Z,29.37
2018-11-05T17:17:57.415Z,25.50
2018-11-05T17:20:24.721Z,27.60
2018-11-05T17:22:52.032Z,25.17
2018-11-05T17:25:19.576Z,35.50
2018-11-05T17:27:47.614Z,37.30
2018-11-05T17:30:18.542Z,44.60
2018-11-05T17:32:46.122Z,55.57
2018-11-05T17:35:19.089Z,57.47
2018-11-05T17:37:47.108Z,49.67
2018-11-05T17:40:15.957Z,41.83
2018-11-05T17:42:43.313Z,38.30
2018-11-05T17:45:12.962Z,43.07
2018-11-05T17:47:40.250Z,42.40
2018-11-05T17:50:10.057Z,43.90
2018-11-05T17:52:37.403Z,38.30
2018-11-05T17:55:07.703Z,33.27
2018-11-05T17:57:37.034Z,32.37
2018-11-05T18:00:06.739Z,26.20
2018-11-05T18:02:34.044Z,30.87
2018-11-05T18:05:01.339Z,30.37
2018-11-05T18:07:28.607Z,27.30
2018-11-05T18:09:55.896Z,26.37
2018-11-05T18:12:23.377Z,24.80
2018-11-05T18:14:50.629Z,24.17
2018-11-05T18:17:17.891Z,24.20
2018-11-05T18:19:45.174Z,28.90
2018-11-05T18:22:14.559Z,24.90
2018-11-05T18:24:42.099Z,22.43
2018-11-05T18:27:09.394Z,23.63
2018-11-05T18:29:36.667Z,21.17
2018-11-05T18:32:04.135Z,20.07
2018-11-05T18:34:31.409Z,21.80
2018-11-05T18:36:58.742Z,24.77
2018-11-05T18:39:26.066Z,23.93
2018-11-05T18:41:55.374Z,21.67
2018-11-05T18:44:22.762Z,23.23
2018-11-05T18:46:50.061Z,20.93
2018-11-05T18:49:17.412Z,22.20
2018-11-05T18:51:44.780Z,24.27
2018-11-05T18:54:12.001Z,23.00
2018-11-05T18:56:39.498Z,22.60
2018-11-05T18:59:10.954Z,20.97
2018-11-05T19:01:38.219Z,21.80
2018-11-05T19:04:05.485Z,20.50
2018-11-05T19:06:32.741Z,21.13
2018-11-05T19:09:01.066Z,21.20
2018-11-05T19:11:28.396Z,23.37
2018-11-05T19:13:55.814Z,21.60
2018-11-05T19:16:23.415Z,22.23
2018-11-05T19:18:50.683Z,22.60
2018-11-05T19:21:18.085Z,23.30
2018-11-05T19:23:45.542Z,21.40
2018-11-05T19:26:12.666Z,24.07
2018-11-05T19:28:40.248Z,24.17
2018-11-05T19:31:07.434Z,23.87
2018-11-05T19:33:34.789Z,22.33
2018-11-05T19:36:03.016Z,23.50
2018-11-05T19:38:30.244Z,22.10
2018-11-05T19:40:57.510Z,20.80
2018-11-05T19:43:24.754Z,21.27
2018-11-05T19:45:52.131Z,25.13
2018-11-05T19:48:20.510Z,24.53
2018-11-05T19:50:51.550Z,24.40
2018-11-05T19:53:20.896Z,25.33
2018-11-05T19:55:48.147Z,22.27
2018-11-05T19:58:19.966Z,22.47
2018-11-05T20:00:49.312Z,22.63
2018-11-05T20:03:20.029Z,35.83
2018-11-05T20:05:47.520Z,28.50
2018-11-05T20:08:14.815Z,30.70
2018-11-05T20:10:42.199Z,23.73
2018-11-05T20:13:10.594Z,26.20
2018-11-05T20:15:37.977Z,24.63
2018-11-05T20:18:05.168Z,23.10
2018-11-05T20:20:36.346Z,25.20
2018-11-05T20:23:05.857Z,27.90
2018-11-05T20:25:33.854Z,24.27
2018-11-05T20:28:01.174Z,24.90
2018-11-05T20:30:28.515Z,24.37
2018-11-05T20:32:56.898Z,26.00
2018-11-05T20:35:26.072Z,26.50
2018-11-05T20:37:53.565Z,31.30
2018-11-05T20:40:21.570Z,24.43
2018-11-05T20:42:49.859Z,24.13
2018-11-05T20:45:18.141Z,27.10
2018-11-05T20:47:45.718Z,27.67
2018-11-05T20:50:13.977Z,26.70
2018-11-05T20:52:41.614Z,26.57
2018-11-05T20:55:10.231Z,26.70
2018-11-05T20:57:37.729Z,25.43
2018-11-05T21:00:06.692Z,30.90
2018-11-05T21:02:34.106Z,30.57
2018-11-05T21:05:01.559Z,30.03
2018-11-05T21:07:28.874Z,26.73
2018-11-05T21:09:56.159Z,27.50
2018-11-05T21:12:23.574Z,24.33
2018-11-05T21:14:50.926Z,26.23
2018-11-05T21:17:18.350Z,27.40
2018-11-05T21:19:45.640Z,26.80
2018-11-05T21:22:13.264Z,26.00
2018-11-05T21:24:40.702Z,25.37
2018-11-05T21:27:08.145Z,25.63
2018-11-05T21:29:35.325Z,23.07
2018-11-05T21:32:02.628Z,28.47
2018-11-05T21:34:29.950Z,22.87
2018-11-05T21:36:57.863Z,24.37
2018-11-05T21:39:25.175Z,23.07
2018-11-05T21:41:52.484Z,21.87
2018-11-05T21:44:19.848Z,22.63
2018-11-05T21:46:49.186Z,25.33
2018-11-05T21:49:16.574Z,24.87
2018-11-05T21:51:43.850Z,21.87
2018-11-05T21:54:12.339Z,24.40
2018-11-05T21:56:39.613Z,29.27
2018-11-05T21:59:07.208Z,27.07
2018-11-05T22:01:34.653Z,24.40
2018-11-05T22:04:01.964Z,26.80
2018-11-05T22:06:29.278Z,24.27
2018-11-05T22:08:57.842Z,25.73
2018-11-05T22:11:25.151Z,24.30
2018-11-05T22:13:52.730Z,24.17
2018-11-05T22:16:21.294Z,23.30
2018-11-05T22:18:48.773Z,22.80
2018-11-05T22:21:16.163Z,23.97
2018-11-05T22:23:45.612Z,22.90
2018-11-05T22:26:13.399Z,22.23
2018-11-05T22:28:41.003Z,26.57
2018-11-05T22:31:08.314Z,28.13
2018-11-05T22:33:39.154Z,23.73
2018-11-05T22:36:06.751Z,22.57
2018-11-05T22:38:34.105Z,24.73
2018-11-05T22:41:01.603Z,24.43
2018-11-05T22:43:28.955Z,24.53
2018-11-05T22:45:56.362Z,21.77
2018-11-05T22:48:23.967Z,22.50
2018-11-05T22:50:51.355Z,22.93
2018-11-05T22:53:18.692Z,24.40
2018-11-05T22:55:46.217Z,23.80
2018-11-05T22:58:13.693Z,22.10
2018-11-05T23:00:46.798Z,27.00
2018-11-05T23:03:20.015Z,23.13
2018-11-05T23:05:47.547Z,22.40
2018-11-05T23:08:15.115Z,24.97
2018-11-05T23:10:42.488Z,24.40
2018-11-05T23:13:09.822Z,23.20
2018-11-05T23:15:37.256Z,24.37
2018-11-05T23:18:05.508Z,24.83
2018-11-05T23:20:32.917Z,24.57
2018-11-05T23:23:00.198Z,27.43
2018-11-05T23:25:27.610Z,24.20
2018-11-05T23:27:55.011Z,26.90
2018-11-05T23:30:22.535Z,25.20
2018-11-05T23:32:50.056Z,25.33
2018-11-05T23:35:21.954Z,27.83
2018-11-05T23:37:49.296Z,27.90
2018-11-05T23:40:16.695Z,27.93
2018-11-05T23:42:44.022Z,25.63
2018-11-05T23:45:14.420Z,23.87
2018-11-05T23:47:41.856Z,25.70
2018-11-05T23:50:09.573Z,27.20
2018-11-05T23:52:36.846Z,28.93
2018-11-05T23:55:04.853Z,27.00
2018-11-05T23:57:32.146Z,27.37
2018-11-05T23:59:59.399Z,25.20
